Time;durP1;ratioP1;P1;durP2;ratioP2;P2;SDS_P1;SDS_P2;PMS_P1;PMS_P2;Temp;Humidity;BMP_temperature;BMP_pressure;BME280_temperature;BME280_humidity;BME280_pressure;Samples;Min_cycle;Max_cycle;Signal;HPM_P1;HPM_P2
2022/12/28 00:00:44;;;;;;;6.22;1.80;;;;;;;;;;4989643;28;20085;-74
2022/12/28 00:03:09;;;;;;;8.43;0.90;;;;;;;;;;4990027;28;20022;-75
2022/12/28 00:05:34;;;;;;;4.57;1.40;;;;;;;;;;4985263;28;20293;-73
2022/12/28 00:07:59;;;;;;;1.70;0.90;;;;;;;;;;4987116;28;20308;-73
2022/12/28 00:10:24;;;;;;;9.43;1.17;;;;;;;;;;4986301;28;20751;-72
2022/12/28 00:12:50;;;;;;;6.87;1.93;;;;;;;;;;4986458;28;20070;-74
2022/12/28 00:15:15;;;;;;;4.73;0.90;;;;;;;;;;4990537;28;20269;-71
2022/12/28 00:17:40;;;;;;;4.13;1.65;;;;;;;;;;4983681;28;20289;-72
2022/12/28 00:20:05;;;;;;;10.53;1.77;;;;;;;;;;4984049;28;20014;-72
2022/12/28 00:22:31;;;;;;;7.28;1.65;;;;;;;;;;4986865;28;20639;-73
2022/12/28 00:24:56;;;;;;;12.33;1.30;;;;;;;;;;4988028;28;20022;-71
2022/12/28 00:27:21;;;;;;;2.58;1.10;;;;;;;;;;4988789;28;20627;-72
2022/12/28 00:29:46;;;;;;;8.50;1.33;;;;;;;;;;4987435;28;20120;-72
2022/12/28 00:32:11;;;;;;;13.07;1.55;;;;;;;;;;4989410;28;20081;-73
2022/12/28 00:34:36;;;;;;;2.80;1.00;;;;;;;;;;4983642;28;20122;-71
2022/12/28 00:37:02;;;;;;;5.47;1.80;;;;;;;;;;4984942;28;20861;-72
2022/12/28 00:39:27;;;;;;;5.47;1.35;;;;;;;;;;4983689;28;20273;-77
2022/12/28 00:41:52;;;;;;;3.43;0.90;;;;;;;;;;4988254;28;20030;-72
2022/12/28 00:44:17;;;;;;;6.95;1.33;;;;;;;;;;4988983;28;20776;-78
2022/12/28 00:46:42;;;;;;;6.25;2.28;;;;;;;;;;4989044;28;20034;-73
2022/12/28 00:49:07;;;;;;;7.53;1.13;;;;;;;;;;4988971;28;20050;-77
2022/12/28 00:51:33;;;;;;;2.40;0.90;;;;;;;;;;4987034;28;20419;-72
2022/12/28 00:53:58;;;;;;;4.25;1.38;;;;;;;;;;4988737;28;20368;-74
2022/12/28 00:56:23;;;;;;;10.98;1.38;;;;;;;;;;4989420;28;20108;-72
2022/12/28 00:58:48;;;;;;;0.80;0.60;;;;;;;;;;4988038;28;20014;-74
2022/12/28 01:01:15;;;;;;;10.38;1.42;;;;;;;;;;4971466;28;20778;-77
2022/12/28 01:03:41;;;;;;;3.08;1.00;;;;;;;;;;4989240;28;20070;-73
2022/12/28 01:06:07;;;;;;;4.10;1.10;;;;;;;;;;4989406;28;20085;-74
2022/12/28 01:08:34;;;;;;;6.45;1.08;;;;;;;;;;4987637;28;20089;-73
2022/12/28 01:10:59;;;;;;;4.47;1.58;;;;;;;;;;4989489;28;20018;-73
2022/12/28 01:13:24;;;;;;;7.00;2.00;;;;;;;;;;4988726;28;20037;-72
2022/12/28 01:15:49;;;;;;;6.40;1.67;;;;;;;;;;4988484;28;20304;-72
2022/12/28 01:18:15;;;;;;;6.50;1.47;;;;;;;;;;4986257;28;20447;-73
2022/12/28 01:20:40;;;;;;;2.38;1.30;;;;;;;;;;4989794;28;20253;-73
2022/12/28 01:23:05;;;;;;;1.85;0.90;;;;;;;;;;4988928;28;20045;-73
2022/12/28 01:25:31;;;;;;;1.08;0.70;;;;;;;;;;4989295;28;20033;-73
2022/12/28 01:27:56;;;;;;;3.60;1.38;;;;;;;;;;4986765;28;20078;-73
2022/12/28 01:30:21;;;;;;;2.33;1.50;;;;;;;;;;4982935;28;20022;-73
2022/12/28 01:32:46;;;;;;;2.10;0.90;;;;;;;;;;4987297;28;20303;-73
2022/12/28 01:35:12;;;;;;;10.30;1.33;;;;;;;;;;4986100;28;20269;-72
2022/12/28 01:37:37;;;;;;;3.88;0.90;;;;;;;;;;4987018;28;20368;-73
2022/12/28 01:40:04;;;;;;;3.78;1.33;;;;;;;;;;4988010;28;20090;-72
2022/12/28 01:42:29;;;;;;;2.45;1.00;;;;;;;;;;4990705;28;20022;-73
2022/12/28 01:44:54;;;;;;;6.27;1.50;;;;;;;;;;4992379;28;20097;-73
2022/12/28 01:47:23;;;;;;;0.88;0.45;;;;;;;;;;4992070;28;20413;-73
2022/12/28 01:49:49;;;;;;;1.60;0.82;;;;;;;;;;4991546;28;20049;-72
2022/12/28 01:52:35;;;;;;;5.90;1.67;;;;;;;;;;4990306;28;20065;-73
2022/12/28 01:55:06;;;;;;;1.25;0.93;;;;;;;;;;4992587;28;20494;-72
2022/12/28 01:57:32;;;;;;;7.20;3.35;;;;;;;;;;4992131;28;20359;-72
2022/12/28 02:00:08;;;;;;;4.10;1.73;;;;;;;;;;4991459;28;20030;-72
2022/12/28 02:02:34;;;;;;;5.65;1.83;;;;;;;;;;4991643;28;20035;-72
2022/12/28 02:05:00;;;;;;;2.17;1.27;;;;;;;;;;4991824;28;20007;-72
2022/12/28 02:07:32;;;;;;;6.45;1.55;;;;;;;;;;4991235;28;20069;-72
2022/12/28 02:09:57;;;;;;;4.10;2.47;;;;;;;;;;4989750;28;20041;-72
2022/12/28 02:12:23;;;;;;;3.88;1.20;;;;;;;;;;4991862;28;20398;-74
2022/12/28 02:14:48;;;;;;;5.88;1.05;;;;;;;;;;4992572;28;20031;-73
2022/12/28 02:17:14;;;;;;;4.93;1.52;;;;;;;;;;4991422;28;20027;-72
2022/12/28 02:19:42;;;;;;;4.43;1.58;;;;;;;;;;4990414;28;20038;-72
2022/12/28 02:22:26;;;;;;;7.47;1.95;;;;;;;;;;4989477;28;20046;-73
2022/12/28 02:25:01;;;;;;;5.20;0.73;;;;;;;;;;4989480;28;20026;-76
2022/12/28 02:27:26;;;;;;;5.82;2.38;;;;;;;;;;4985953;28;20423;-72
2022/12/28 02:29:57;;;;;;;1.65;0.75;;;;;;;;;;4990402;28;20022;-72
2022/12/28 02:32:22;;;;;;;5.13;1.10;;;;;;;;;;4985567;28;20301;-72
2022/12/28 02:34:54;;;;;;;3.17;1.25;;;;;;;;;;4990280;28;20240;-72
2022/12/28 02:37:23;;;;;;;2.97;1.30;;;;;;;;;;4983343;28;20093;-72
2022/12/28 02:39:55;;;;;;;5.15;1.27;;;;;;;;;;4990622;28;20033;-73
2022/12/28 02:42:20;;;;;;;10.30;1.17;;;;;;;;;;4989113;28;20105;-72
2022/12/28 02:50:15;;;;;;;4.30;1.05;;;;;;;;;;4989250;28;20154;-73
2022/12/28 02:52:46;;;;;;;1.20;0.77;;;;;;;;;;4990701;28;20018;-73
2022/12/28 02:58:16;;;;;;;1.63;0.80;;;;;;;;;;4991042;28;20547;-73
2022/12/28 03:01:00;;;;;;;1.83;1.30;;;;;;;;;;4986569;28;20505;-72
2022/12/28 03:03:25;;;;;;;3.28;1.45;;;;;;;;;;4985342;28;20022;-72
2022/12/28 03:08:55;;;;;;;4.20;2.35;;;;;;;;;;4987078;28;20780;-72
2022/12/28 03:11:32;;;;;;;3.95;1.20;;;;;;;;;;4990325;28;20054;-72
2022/12/28 03:14:00;;;;;;;5.10;2.25;;;;;;;;;;4990683;28;20475;-72
2022/12/28 03:16:27;;;;;;;4.03;1.40;;;;;;;;;;4991122;28;20430;-72
2022/12/28 03:33:00;;;;;;;3.40;1.05;;;;;;;;;;4988915;28;20117;-72
2022/12/28 03:35:29;;;;;;;7.88;1.98;;;;;;;;;;4987961;28;20097;-72
2022/12/28 03:37:59;;;;;;;3.50;1.45;;;;;;;;;;4990416;28;20018;-73
2022/12/28 03:40:24;;;;;;;;;;;;;;;;;;4989509;28;20050;-72
2022/12/28 03:45:44;;;;;;;10.13;2.67;;;;;;;;;;4991059;28;20029;-72
2022/12/28 03:48:09;;;;;;;2.10;0.85;;;;;;;;;;4989433;28;20026;-74
2022/12/28 03:50:37;;;;;;;7.32;1.33;;;;;;;;;;4989685;28;20020;-72
2022/12/28 03:53:02;;;;;;;6.75;2.22;;;;;;;;;;4988891;28;20551;-73
2022/12/28 03:55:27;;;;;;;8.77;2.45;;;;;;;;;;4990672;28;20089;-72
2022/12/28 03:57:52;;;;;;;4.03;1.83;;;;;;;;;;4989364;28;20037;-72
2022/12/28 04:00:18;;;;;;;7.95;3.08;;;;;;;;;;4989403;28;20105;-75
2022/12/28 04:02:43;;;;;;;7.68;2.05;;;;;;;;;;4989537;28;20021;-72
2022/12/28 04:05:08;;;;;;;7.25;1.90;;;;;;;;;;4990140;28;20030;-72
2022/12/28 04:07:33;;;;;;;3.25;0.82;;;;;;;;;;4989592;28;20026;-72
2022/12/28 04:09:58;;;;;;;9.20;1.67;;;;;;;;;;4988401;28;20132;-75
2022/12/28 04:12:24;;;;;;;6.25;1.75;;;;;;;;;;4990012;28;20277;-74
2022/12/28 04:14:49;;;;;;;8.75;2.05;;;;;;;;;;4989663;28;20026;-73
2022/12/28 04:17:14;;;;;;;1.50;0.97;;;;;;;;;;4989412;28;20026;-72
2022/12/28 04:19:39;;;;;;;2.70;1.53;;;;;;;;;;4990360;28;20388;-73
2022/12/28 04:22:04;;;;;;;1.88;1.20;;;;;;;;;;4988376;28;20293;-72
2022/12/28 04:24:29;;;;;;;8.73;2.77;;;;;;;;;;4989097;28;20057;-72
2022/12/28 04:26:55;;;;;;;2.97;1.20;;;;;;;;;;4988769;28;20276;-73
2022/12/28 04:29:20;;;;;;;1.35;0.60;;;;;;;;;;4989849;28;20014;-73
2022/12/28 04:31:45;;;;;;;4.73;0.97;;;;;;;;;;4988625;28;20109;-74
2022/12/28 04:34:10;;;;;;;6.17;1.07;;;;;;;;;;4989079;28;20639;-72
2022/12/28 04:36:36;;;;;;;3.65;1.25;;;;;;;;;;4989793;28;20266;-72
2022/12/28 04:39:01;;;;;;;1.15;0.73;;;;;;;;;;4990138;28;20375;-72
2022/12/28 04:41:26;;;;;;;1.85;0.90;;;;;;;;;;4987522;28;20037;-72
2022/12/28 04:43:53;;;;;;;4.68;1.30;;;;;;;;;;4984349;28;20443;-72
2022/12/28 04:46:18;;;;;;;1.35;1.00;;;;;;;;;;4989626;28;20022;-71
2022/12/28 04:48:43;;;;;;;8.48;1.45;;;;;;;;;;4989651;28;20021;-72
2022/12/28 04:51:10;;;;;;;4.30;1.05;;;;;;;;;;4988803;28;20392;-73
2022/12/28 04:53:36;;;;;;;7.65;1.27;;;;;;;;;;4989108;28;20085;-72
2022/12/28 04:56:03;;;;;;;7.35;1.48;;;;;;;;;;4989838;28;20018;-72
2022/12/28 04:58:28;;;;;;;0.73;0.57;;;;;;;;;;4987849;28;20084;-72
2022/12/28 05:00:53;;;;;;;8.67;0.87;;;;;;;;;;4987705;28;20680;-74
2022/12/28 05:03:18;;;;;;;1.10;0.53;;;;;;;;;;4988128;28;20280;-72
2022/12/28 05:05:43;;;;;;;7.80;1.50;;;;;;;;;;4972751;28;20724;-73
2022/12/28 05:08:08;;;;;;;7.10;1.33;;;;;;;;;;4988947;28;20282;-71
2022/12/28 05:10:34;;;;;;;4.68;1.23;;;;;;;;;;4988975;28;20273;-72
2022/12/28 05:12:59;;;;;;;4.22;1.02;;;;;;;;;;4988560;28;20596;-73
2022/12/28 05:15:24;;;;;;;3.30;2.60;;;;;;;;;;4990748;28;20018;-72
2022/12/28 05:17:50;;;;;;;2.17;0.80;;;;;;;;;;4991872;28;20313;-73
2022/12/28 05:20:16;;;;;;;1.38;0.63;;;;;;;;;;4992371;28;20042;-71
2022/12/28 05:22:42;;;;;;;2.33;1.00;;;;;;;;;;4993328;28;20046;-72
2022/12/28 05:25:07;;;;;;;1.13;0.70;;;;;;;;;;4992176;28;20517;-72
2022/12/28 05:27:32;;;;;;;1.95;1.23;;;;;;;;;;4990714;28;20274;-72
2022/12/28 05:29:57;;;;;;;5.87;1.20;;;;;;;;;;4993256;28;20022;-72
2022/12/28 05:32:22;;;;;;;1.00;0.70;;;;;;;;;;4991692;28;20860;-72
2022/12/28 05:34:48;;;;;;;2.05;0.57;;;;;;;;;;4989691;28;20286;-72
2022/12/28 05:37:13;;;;;;;2.07;1.07;;;;;;;;;;4991732;28;20034;-72
2022/12/28 05:39:38;;;;;;;2.95;0.85;;;;;;;;;;4993034;28;20646;-72
2022/12/28 05:42:04;;;;;;;1.87;0.73;;;;;;;;;;4989690;28;20081;-72
2022/12/28 05:44:29;;;;;;;3.55;0.70;;;;;;;;;;4987751;28;20250;-73
2022/12/28 05:46:55;;;;;;;3.08;0.57;;;;;;;;;;4991142;28;20022;-72
2022/12/28 05:49:20;;;;;;;1.10;0.70;;;;;;;;;;4991469;28;20022;-71
2022/12/28 05:51:47;;;;;;;2.85;0.90;;;;;;;;;;4990916;28;20014;-72
2022/12/28 05:54:12;;;;;;;0.98;0.57;;;;;;;;;;4991621;28;20026;-71
2022/12/28 05:56:37;;;;;;;2.70;0.97;;;;;;;;;;4991734;28;20597;-72
2022/12/28 05:59:04;;;;;;;1.80;0.50;;;;;;;;;;4992162;28;20269;-71
2022/12/28 06:01:33;;;;;;;0.55;0.28;;;;;;;;;;4990899;28;20101;-72
2022/12/28 06:04:12;;;;;;;0.88;0.63;;;;;;;;;;4992929;28;20477;-71
2022/12/28 06:06:37;;;;;;;0.82;0.40;;;;;;;;;;4990640;28;20033;-72
2022/12/28 06:09:03;;;;;;;4.88;0.63;;;;;;;;;;4991625;28;20010;-72
2022/12/28 06:11:28;;;;;;;1.02;0.50;;;;;;;;;;4990789;28;20499;-72
2022/12/28 06:13:54;;;;;;;0.93;0.60;;;;;;;;;;4992458;28;20018;-72
2022/12/28 06:16:20;;;;;;;2.13;0.50;;;;;;;;;;4988755;28;20030;-72
2022/12/28 06:18:46;;;;;;;1.85;0.60;;;;;;;;;;4991825;28;20041;-72
2022/12/28 06:21:14;;;;;;;5.15;0.32;;;;;;;;;;4990762;28;20022;-71
2022/12/28 06:23:40;;;;;;;4.10;1.60;;;;;;;;;;4992511;28;20483;-71
2022/12/28 06:26:06;;;;;;;1.08;0.50;;;;;;;;;;4988389;28;20116;-71
2022/12/28 06:28:32;;;;;;;3.03;0.57;;;;;;;;;;4991363;28;20018;-71
2022/12/28 06:31:01;;;;;;;1.35;0.52;;;;;;;;;;4991122;28;20692;-72
2022/12/28 06:33:26;;;;;;;4.68;1.17;;;;;;;;;;4975665;28;20077;-73
2022/12/28 06:35:51;;;;;;;3.08;1.02;;;;;;;;;;4988524;28;20030;-71
2022/12/28 06:38:16;;;;;;;6.00;0.80;;;;;;;;;;4991177;28;20124;-72
2022/12/28 06:40:42;;;;;;;3.77;0.70;;;;;;;;;;4990816;28;20262;-71
2022/12/28 06:43:07;;;;;;;1.03;0.40;;;;;;;;;;4990396;28;20281;-73
2022/12/28 06:45:32;;;;;;;5.45;1.45;;;;;;;;;;4990703;28;20301;-73
2022/12/28 06:47:57;;;;;;;7.33;1.70;;;;;;;;;;4988267;28;20062;-73
2022/12/28 06:50:23;;;;;;;3.20;0.77;;;;;;;;;;4989813;28;20271;-74
2022/12/28 06:52:48;;;;;;;1.50;0.90;;;;;;;;;;4991172;28;20022;-72
2022/12/28 06:55:13;;;;;;;1.00;0.60;;;;;;;;;;4990146;28;20931;-73
2022/12/28 06:57:38;;;;;;;6.90;1.00;;;;;;;;;;4989238;28;20289;-73
2022/12/28 07:00:04;;;;;;;4.77;1.40;;;;;;;;;;4990183;28;20019;-72
2022/12/28 07:02:29;;;;;;;1.75;0.82;;;;;;;;;;4987686;28;20673;-72
2022/12/28 07:04:54;;;;;;;2.57;1.07;;;;;;;;;;4983238;28;20030;-72
2022/12/28 07:07:19;;;;;;;2.23;0.90;;;;;;;;;;4987884;28;20281;-72
2022/12/28 07:09:45;;;;;;;3.42;0.75;;;;;;;;;;4988242;28;20665;-74
2022/12/28 07:12:10;;;;;;;2.00;0.77;;;;;;;;;;4986057;28;20506;-73
2022/12/28 07:14:35;;;;;;;2.03;0.93;;;;;;;;;;4986400;28;20282;-73
2022/12/28 07:17:00;;;;;;;1.42;0.35;;;;;;;;;;4987017;28;20293;-73
2022/12/28 07:19:25;;;;;;;0.87;0.60;;;;;;;;;;4986653;28;20043;-72
2022/12/28 07:21:50;;;;;;;2.95;0.20;;;;;;;;;;4988736;28;20292;-73
2022/12/28 07:24:16;;;;;;;1.80;0.60;;;;;;;;;;4987504;28;20018;-72
2022/12/28 07:26:41;;;;;;;3.30;0.85;;;;;;;;;;4986486;28;20439;-72
2022/12/28 07:29:07;;;;;;;2.90;0.82;;;;;;;;;;4984695;28;20030;-72
2022/12/28 07:31:34;;;;;;;3.63;1.65;;;;;;;;;;4987755;28;20070;-72
2022/12/28 07:34:00;;;;;;;1.27;0.50;;;;;;;;;;4985303;28;20070;-73
2022/12/28 07:36:26;;;;;;;1.33;0.65;;;;;;;;;;4968922;28;20022;-72
2022/12/28 07:38:51;;;;;;;2.28;1.13;;;;;;;;;;4980516;28;20011;-72
2022/12/28 07:41:21;;;;;;;0.45;0.32;;;;;;;;;;4986456;28;20026;-72
2022/12/28 07:43:47;;;;;;;4.80;1.30;;;;;;;;;;4984061;28;20081;-72
2022/12/28 07:46:13;;;;;;;1.08;0.47;;;;;;;;;;4984367;28;20430;-74
2022/12/28 07:48:39;;;;;;;3.95;0.80;;;;;;;;;;4988791;28;20110;-73
2022/12/28 07:51:05;;;;;;;3.80;1.00;;;;;;;;;;4988873;28;20105;-74
2022/12/28 07:53:31;;;;;;;2.05;0.50;;;;;;;;;;4990222;28;20033;-73
2022/12/28 07:55:56;;;;;;;5.63;2.17;;;;;;;;;;4989786;28;20018;-72
2022/12/28 07:58:22;;;;;;;9.50;1.20;;;;;;;;;;4988972;28;20329;-72
2022/12/28 08:00:47;;;;;;;2.78;0.95;;;;;;;;;;4990183;28;20430;-73
2022/12/28 08:03:12;;;;;;;1.15;0.52;;;;;;;;;;4990006;28;20022;-73
2022/12/28 08:05:38;;;;;;;4.72;1.13;;;;;;;;;;4989732;28;20081;-72
2022/12/28 08:08:03;;;;;;;4.47;0.80;;;;;;;;;;4988458;28;20022;-73
2022/12/28 08:10:28;;;;;;;1.35;0.70;;;;;;;;;;4989872;28;20297;-72
2022/12/28 08:12:53;;;;;;;2.03;0.67;;;;;;;;;;4989446;28;20034;-73
2022/12/28 08:15:18;;;;;;;2.43;1.00;;;;;;;;;;4989509;28;20352;-72
2022/12/28 08:17:43;;;;;;;1.77;0.60;;;;;;;;;;4987211;28;20277;-72
2022/12/28 08:20:09;;;;;;;3.83;1.10;;;;;;;;;;4989656;28;20351;-72
2022/12/28 08:22:34;;;;;;;2.90;0.52;;;;;;;;;;4990187;28;20735;-73
2022/12/28 08:24:59;;;;;;;3.97;0.90;;;;;;;;;;4987839;28;20014;-72
2022/12/28 08:27:24;;;;;;;2.57;0.63;;;;;;;;;;4987192;28;20360;-72
2022/12/28 08:29:49;;;;;;;1.67;0.60;;;;;;;;;;4972297;28;20292;-72
2022/12/28 08:32:15;;;;;;;0.90;0.52;;;;;;;;;;4988961;28;20273;-73
2022/12/28 08:34:40;;;;;;;1.42;0.57;;;;;;;;;;4990101;28;20028;-72
2022/12/28 08:37:05;;;;;;;2.80;0.57;;;;;;;;;;4986742;28;20035;-73
2022/12/28 08:39:30;;;;;;;2.33;1.00;;;;;;;;;;4986540;28;20331;-72
2022/12/28 08:41:56;;;;;;;2.45;0.60;;;;;;;;;;4984200;28;20022;-74
2022/12/28 08:44:21;;;;;;;2.70;0.60;;;;;;;;;;4985111;28;20033;-73
2022/12/28 08:46:46;;;;;;;1.13;0.50;;;;;;;;;;4988805;28;20022;-73
2022/12/28 08:49:11;;;;;;;2.10;0.60;;;;;;;;;;4989674;28;20096;-73
2022/12/28 08:51:41;;;;;;;3.00;0.45;;;;;;;;;;4989915;28;20106;-73
2022/12/28 08:54:07;;;;;;;1.30;0.87;;;;;;;;;;4993146;28;20014;-73
2022/12/28 08:56:34;;;;;;;1.73;0.70;;;;;;;;;;4991588;28;20932;-72
2022/12/28 08:58:59;;;;;;;1.65;0.73;;;;;;;;;;4991678;28;20026;-73
2022/12/28 09:01:26;;;;;;;1.38;0.70;;;;;;;;;;4989741;28;20040;-72
2022/12/28 09:03:52;;;;;;;2.72;0.73;;;;;;;;;;4976243;28;20027;-72
2022/12/28 09:06:19;;;;;;;3.67;0.90;;;;;;;;;;4974004;28;20037;-72
2022/12/28 09:08:47;;;;;;;2.33;0.50;;;;;;;;;;4993034;28;20018;-72
2022/12/28 09:11:12;;;;;;;3.53;1.42;;;;;;;;;;4992434;28;20102;-73
2022/12/28 09:13:37;;;;;;;6.22;1.65;;;;;;;;;;4972220;28;20113;-73
2022/12/28 09:16:13;;;;;;;2.95;1.10;;;;;;;;;;4988219;28;20026;-72
2022/12/28 09:18:39;;;;;;;4.75;1.17;;;;;;;;;;4986515;28;20484;-72
2022/12/28 09:21:18;;;;;;;4.15;1.05;;;;;;;;;;4988577;28;20018;-73
2022/12/28 09:23:44;;;;;;;3.42;0.40;;;;;;;;;;4990026;28;20045;-72
2022/12/28 09:26:20;;;;;;;1.60;0.60;;;;;;;;;;4982870;28;20443;-73
2022/12/28 09:28:49;;;;;;;2.58;0.43;;;;;;;;;;4982624;28;20068;-74
2022/12/28 09:31:15;;;;;;;1.17;0.50;;;;;;;;;;4984554;28;20030;-73
2022/12/28 09:33:59;;;;;;;2.45;0.90;;;;;;;;;;4988233;28;20032;-73
2022/12/28 09:36:29;;;;;;;0.50;0.40;;;;;;;;;;4981323;28;20046;-72
2022/12/28 09:38:54;;;;;;;4.40;0.63;;;;;;;;;;4989922;28;20393;-74
2022/12/28 09:41:38;;;;;;;0.83;0.70;;;;;;;;;;4986162;28;20030;-73
2022/12/28 09:44:15;;;;;;;3.28;0.70;;;;;;;;;;4986084;28;20273;-72
2022/12/28 09:46:59;;;;;;;2.10;0.70;;;;;;;;;;4985798;28;20023;-74
2022/12/28 09:49:29;;;;;;;3.30;0.65;;;;;;;;;;4975824;28;20023;-73
2022/12/28 09:51:58;;;;;;;3.45;0.50;;;;;;;;;;4986832;28;20403;-74
2022/12/28 09:54:23;;;;;;;3.00;0.60;;;;;;;;;;4989926;28;20133;-72
2022/12/28 09:56:49;;;;;;;3.60;1.33;;;;;;;;;;4987285;28;20483;-73
2022/12/28 09:59:23;;;;;;;2.55;0.82;;;;;;;;;;4987869;28;20422;-73
2022/12/28 10:01:54;;;;;;;0.75;0.40;;;;;;;;;;4987798;28;20247;-73
2022/12/28 10:04:19;;;;;;;10.90;2.40;;;;;;;;;;4985707;28;20062;-72
2022/12/28 10:06:45;;;;;;;2.25;0.85;;;;;;;;;;4986261;28;20030;-75
2022/12/28 10:09:12;;;;;;;2.90;1.25;;;;;;;;;;4989032;28;20022;-72
2022/12/28 10:11:40;;;;;;;1.02;0.50;;;;;;;;;;4987556;28;20022;-73
2022/12/28 10:14:18;;;;;;;3.03;1.08;;;;;;;;;;4989702;28;20390;-73
2022/12/28 10:16:44;;;;;;;2.42;0.63;;;;;;;;;;4985570;28;20018;-73
2022/12/28 10:19:10;;;;;;;2.33;0.90;;;;;;;;;;4973877;28;20041;-72
2022/12/28 10:21:35;;;;;;;4.80;0.70;;;;;;;;;;4991291;28;20399;-73
2022/12/28 10:24:03;;;;;;;2.90;0.65;;;;;;;;;;4988535;28;20015;-72
2022/12/28 10:26:28;;;;;;;1.80;0.57;;;;;;;;;;4990457;28;20031;-73
2022/12/28 10:28:56;;;;;;;1.67;0.70;;;;;;;;;;4992454;28;20014;-72
2022/12/28 10:31:32;;;;;;;3.33;0.65;;;;;;;;;;4987684;28;20110;-73
2022/12/28 10:33:57;;;;;;;1.08;0.28;;;;;;;;;;4985835;28;20032;-73
2022/12/28 10:36:23;;;;;;;1.93;0.47;;;;;;;;;;4988829;28;20082;-73
2022/12/28 10:38:50;;;;;;;2.70;1.42;;;;;;;;;;5064611;23;20318;-69
2022/12/28 10:41:17;;;;;;;1.65;0.60;;;;;;;;;;5006397;28;20025;-68
2022/12/28 10:43:52;;;;;;;3.50;0.70;;;;;;;;;;5008288;28;20092;-68
2022/12/28 10:46:18;;;;;;;2.10;0.60;;;;;;;;;;5008085;28;20398;-68
2022/12/28 10:48:49;;;;;;;0.43;0.28;;;;;;;;;;5003544;28;20034;-70
2022/12/28 10:51:16;;;;;;;1.33;0.63;;;;;;;;;;4990132;28;20034;-69
2022/12/28 10:53:45;;;;;;;0.88;0.50;;;;;;;;;;4988947;28;20027;-68
2022/12/28 10:56:10;;;;;;;2.23;0.87;;;;;;;;;;4987738;28;20026;-68
2022/12/28 10:58:35;;;;;;;2.97;0.97;;;;;;;;;;4989047;28;20820;-68
2022/12/28 11:01:13;;;;;;;2.53;1.00;;;;;;;;;;4984039;28;20316;-70
2022/12/28 11:03:58;;;;;;;1.65;0.80;;;;;;;;;;4986012;28;20352;-69
2022/12/28 11:06:25;;;;;;;1.50;0.70;;;;;;;;;;4988459;28;20042;-71
2022/12/28 11:08:59;;;;;;;2.10;0.68;;;;;;;;;;4984370;28;20101;-68
2022/12/28 11:11:24;;;;;;;1.35;0.88;;;;;;;;;;4985376;28;20026;-68
2022/12/28 11:14:10;;;;;;;1.07;0.57;;;;;;;;;;4986206;28;20030;-68
2022/12/28 11:16:36;;;;;;;3.15;0.90;;;;;;;;;;4988268;28;20272;-68
2022/12/28 11:19:02;;;;;;;3.55;0.55;;;;;;;;;;4986946;28;20013;-68
2022/12/28 11:21:27;;;;;;;3.92;0.60;;;;;;;;;;4992778;28;20104;-68
2022/12/28 11:23:53;;;;;;;3.70;0.90;;;;;;;;;;4990140;28;20021;-68
2022/12/28 11:26:19;;;;;;;15.52;1.05;;;;;;;;;;4987934;28;20089;-68
2022/12/28 11:28:46;;;;;;;5.50;1.17;;;;;;;;;;4994058;28;20018;-68
2022/12/28 11:31:16;;;;;;;2.63;0.80;;;;;;;;;;4988574;28;20034;-68
2022/12/28 11:33:43;;;;;;;1.20;0.52;;;;;;;;;;4990922;28;20089;-68
2022/12/28 11:36:15;;;;;;;5.72;1.00;;;;;;;;;;4993286;28;20041;-68
2022/12/28 11:38:42;;;;;;;2.08;1.05;;;;;;;;;;4987263;28;20072;-68
2022/12/28 11:41:12;;;;;;;5.53;0.95;;;;;;;;;;4988116;28;20041;-68
2022/12/28 11:43:38;;;;;;;5.28;1.02;;;;;;;;;;4988159;28;20028;-68
2022/12/28 11:46:24;;;;;;;4.60;0.82;;;;;;;;;;4985780;28;20489;-68
2022/12/28 11:48:56;;;;;;;5.32;1.10;;;;;;;;;;4983623;28;20045;-68
2022/12/28 11:51:24;;;;;;;3.75;0.80;;;;;;;;;;4989892;28;20018;-68
2022/12/28 11:53:52;;;;;;;5.82;1.63;;;;;;;;;;4991671;28;20445;-68
2022/12/28 11:56:18;;;;;;;2.45;1.10;;;;;;;;;;4985849;28;20026;-68
2022/12/28 11:58:45;;;;;;;4.60;0.88;;;;;;;;;;4989927;28;20214;-68
2022/12/28 12:01:35;;;;;;;1.73;0.85;;;;;;;;;;4985117;28;20436;-69
2022/12/28 12:04:00;;;;;;;2.40;1.17;;;;;;;;;;4987972;28;20065;-69
2022/12/28 12:06:41;;;;;;;17.07;1.50;;;;;;;;;;4987946;28;20479;-69
2022/12/28 12:09:24;;;;;;;1.38;0.52;;;;;;;;;;4984032;28;20256;-70
2022/12/28 12:12:21;;;;;;;6.80;1.35;;;;;;;;;;4993105;28;20014;-69
2022/12/28 12:15:00;;;;;;;1.92;1.05;;;;;;;;;;4989108;28;20022;-69
2022/12/28 12:17:32;;;;;;;5.03;0.85;;;;;;;;;;4987834;28;20084;-69
2022/12/28 12:20:00;;;;;;;1.10;0.45;;;;;;;;;;4992410;28;20530;-69
2022/12/28 12:22:45;;;;;;;1.88;0.80;;;;;;;;;;4992654;28;20026;-69
2022/12/28 12:25:31;;;;;;;1.48;0.82;;;;;;;;;;4986526;28;20019;-69
2022/12/28 12:27:58;;;;;;;1.33;0.70;;;;;;;;;;4993127;28;20388;-69
2022/12/28 12:30:23;;;;;;;3.25;0.63;;;;;;;;;;4988576;28;20105;-69
2022/12/28 12:32:54;;;;;;;8.27;1.40;;;;;;;;;;4990514;28;20177;-69
2022/12/28 12:35:21;;;;;;;5.65;2.15;;;;;;;;;;4992686;28;20062;-69
2022/12/28 12:37:58;;;;;;;1.75;0.68;;;;;;;;;;4990246;28;20483;-68
2022/12/28 12:40:23;;;;;;;8.15;2.28;;;;;;;;;;4982215;28;20027;-68
2022/12/28 12:42:51;;;;;;;5.30;1.20;;;;;;;;;;4992386;28;20348;-69
2022/12/28 12:45:22;;;;;;;5.38;1.23;;;;;;;;;;4991427;28;20293;-69
2022/12/28 12:47:56;;;;;;;2.67;1.05;;;;;;;;;;4989715;28;20467;-69
2022/12/28 12:50:30;;;;;;;5.38;0.70;;;;;;;;;;4988285;28;20034;-69
2022/12/28 12:52:58;;;;;;;0.85;0.55;;;;;;;;;;4990545;28;20029;-70
2022/12/28 12:55:42;;;;;;;1.73;0.63;;;;;;;;;;4990718;28;20471;-68
2022/12/28 12:58:17;;;;;;;3.10;1.30;;;;;;;;;;4986053;28;20105;-70
2022/12/28 13:00:48;;;;;;;8.25;1.42;;;;;;;;;;4991491;28;20022;-69
2022/12/28 13:03:25;;;;;;;2.83;0.60;;;;;;;;;;4991574;28;20026;-69
2022/12/28 13:05:52;;;;;;;11.05;1.75;;;;;;;;;;4991674;28;20029;-68
2022/12/28 13:08:22;;;;;;;10.00;1.67;;;;;;;;;;4992573;28;20015;-69
2022/12/28 13:10:47;;;;;;;;;;;;;;;;;;4993210;28;20122;-69
2022/12/28 13:13:31;;;;;;;9.55;1.80;;;;;;;;;;4988850;28;19909;-70
2022/12/28 13:15:59;;;;;;;5.55;2.60;;;;;;;;;;4989771;28;20037;-69
2022/12/28 13:18:24;;;;;;;12.23;4.68;;;;;;;;;;4989485;28;20425;-70
2022/12/28 13:20:53;;;;;;;12.35;4.72;;;;;;;;;;4990824;28;20019;-69
2022/12/28 13:23:20;;;;;;;4.18;1.38;;;;;;;;;;4992365;28;20356;-69
2022/12/28 13:25:47;;;;;;;4.93;2.20;;;;;;;;;;4991473;28;20509;-70
2022/12/28 13:28:25;;;;;;;6.15;1.77;;;;;;;;;;4990551;28;20030;-70
2022/12/28 13:31:16;;;;;;;1.52;0.80;;;;;;;;;;4988696;28;20027;-69
2022/12/28 13:33:42;;;;;;;4.03;1.30;;;;;;;;;;4988324;28;20569;-69
2022/12/28 13:36:15;;;;;;;2.20;1.00;;;;;;;;;;4989791;28;20019;-70
2022/12/28 13:38:41;;;;;;;7.93;1.30;;;;;;;;;;4992320;28;20089;-70
2022/12/28 13:41:15;;;;;;;1.98;0.82;;;;;;;;;;4991581;28;20034;-67
2022/12/28 13:43:55;;;;;;;5.63;1.27;;;;;;;;;;4993051;28;20014;-69
2022/12/28 13:46:21;;;;;;;4.95;1.30;;;;;;;;;;4988126;28;20022;-67
2022/12/28 13:48:49;;;;;;;3.13;1.15;;;;;;;;;;4991707;28;20035;-67
2022/12/28 13:51:15;;;;;;;1.10;0.60;;;;;;;;;;4992232;28;20479;-67
2022/12/28 13:53:43;;;;;;;2.90;1.20;;;;;;;;;;4992892;28;20109;-70
2022/12/28 13:56:10;;;;;;;1.25;0.55;;;;;;;;;;4990999;28;20022;-67
2022/12/28 13:58:37;;;;;;;2.15;0.60;;;;;;;;;;4992299;28;20041;-67
2022/12/28 14:01:08;;;;;;;4.03;1.10;;;;;;;;;;4992595;28;20018;-67
2022/12/28 14:03:36;;;;;;;2.00;1.15;;;;;;;;;;4992871;28;20022;-66
2022/12/28 14:06:02;;;;;;;1.35;0.75;;;;;;;;;;4988013;28;20010;-69
2022/12/28 14:08:31;;;;;;;2.28;0.90;;;;;;;;;;4992641;28;20026;-69
2022/12/28 14:10:57;;;;;;;2.92;0.90;;;;;;;;;;4973364;28;20054;-67
2022/12/28 14:13:23;;;;;;;6.68;1.17;;;;;;;;;;4992069;28;20029;-69
2022/12/28 14:15:48;;;;;;;1.23;0.55;;;;;;;;;;4992748;28;20027;-67
2022/12/28 14:18:15;;;;;;;2.90;1.15;;;;;;;;;;4992865;28;20026;-67
2022/12/28 14:20:46;;;;;;;3.35;0.90;;;;;;;;;;4992291;28;20410;-67
2022/12/28 14:23:18;;;;;;;5.18;1.02;;;;;;;;;;4984637;28;20490;-67
2022/12/28 14:25:43;;;;;;;2.53;1.05;;;;;;;;;;4988492;28;20034;-67
2022/12/28 14:28:17;;;;;;;1.58;0.47;;;;;;;;;;4984644;28;20030;-67
2022/12/28 14:30:42;;;;;;;3.45;1.15;;;;;;;;;;4987945;28;20026;-67
2022/12/28 14:33:18;;;;;;;3.78;0.98;;;;;;;;;;4990747;28;20019;-67
2022/12/28 14:35:46;;;;;;;1.00;0.60;;;;;;;;;;4971959;28;20068;-67
2022/12/28 14:38:15;;;;;;;7.38;1.20;;;;;;;;;;4990980;28;20041;-67
2022/12/28 14:40:40;;;;;;;3.33;1.10;;;;;;;;;;4980563;28;20027;-67
2022/12/28 14:43:09;;;;;;;5.30;1.10;;;;;;;;;;4987891;28;20049;-70
2022/12/28 14:45:36;;;;;;;3.05;0.70;;;;;;;;;;4982830;28;20061;-67
2022/12/28 14:48:01;;;;;;;1.90;1.02;;;;;;;;;;4984312;28;20053;-69
2022/12/28 14:50:28;;;;;;;8.10;1.55;;;;;;;;;;4989422;28;20062;-67
2022/12/28 14:53:08;;;;;;;4.63;1.10;;;;;;;;;;4988399;28;20027;-67
2022/12/28 14:55:38;;;;;;;11.27;0.80;;;;;;;;;;4985431;28;20486;-68
2022/12/28 14:58:04;;;;;;;;;;;;;;;;;;4984136;28;20402;-70
2022/12/28 15:00:30;;;;;;;1.75;0.80;;;;;;;;;;4991285;28;20289;-67
2022/12/28 15:02:56;;;;;;;3.85;1.38;;;;;;;;;;4989006;28;20029;-68
2022/12/28 15:05:31;;;;;;;9.95;1.35;;;;;;;;;;4989551;28;20029;-68
2022/12/28 15:07:56;;;;;;;3.30;1.30;;;;;;;;;;4988826;28;20026;-68
2022/12/28 15:10:21;;;;;;;3.40;1.23;;;;;;;;;;4988784;28;20391;-67
2022/12/28 15:12:46;;;;;;;2.78;1.30;;;;;;;;;;4989361;28;20317;-67
2022/12/28 15:15:11;;;;;;;1.67;1.00;;;;;;;;;;4982712;28;20042;-66